Time;durP1;ratioP1;P1;durP2;ratioP2;P2;SDS_P1;SDS_P2;PMS_P1;PMS_P2;Temp;Humidity;BMP_temperature;BMP_pressure;BME280_temperature;BME280_humidity;BME280_pressure;Samples;Min_cycle;Max_cycle;Signal;HPM_P1;HPM_P2
2020/12/10 00:01:34;;;;;;;;;;;;;;;3.47;100.00;98480.28;4881690;29;19979;-76
2020/12/10 00:04:01;;;;;;;;;;;;;;;3.48;100.00;98497.66;4865516;29;20288;-76
2020/12/10 00:06:28;;;;;;;;;;;;;;;3.36;100.00;98501.53;4881654;29;20431;-76
2020/12/10 00:08:54;;;;;;;;;;;;;;;3.27;100.00;98494.81;4880669;29;19928;-76
2020/12/10 00:11:21;;;;;;;;;;;;;;;3.34;100.00;98503.13;4851479;29;20404;-76
2020/12/10 00:13:48;;;;;;;;;;;;;;;3.41;100.00;98503.13;4863071;29;20377;-76
2020/12/10 00:16:15;;;;;;;;;;;;;;;3.35;100.00;98513.78;4816256;29;19935;-76
2020/12/10 00:18:42;;;;;;;;;;;;;;;3.50;100.00;98517.34;4846616;29;19975;-76
2020/12/10 00:21:08;;;;;;;;;;;;;;;3.44;100.00;98516.16;4831356;29;20292;-76
2020/12/10 00:23:35;;;;;;;;;;;;;;;3.48;100.00;98526.03;4846318;29;20399;-76
2020/12/10 00:26:02;;;;;;;;;;;;;;;3.43;100.00;98526.44;4862993;29;19935;-76
2020/12/10 00:28:29;;;;;;;;;;;;;;;3.36;100.00;98539.44;4846105;29;19928;-76
2020/12/10 00:30:55;;;;;;;;;;;;;;;3.46;100.00;98585.63;4846463;29;19928;-76
2020/12/10 00:33:22;;;;;;;;;;;;;;;3.56;100.00;98598.66;4862720;29;20361;-76
2020/12/10 00:35:48;;;;;;;;;;;;;;;3.42;100.00;98579.28;4862633;29;20420;-76
2020/12/10 00:38:15;;;;;;;;;;;;;;;3.39;100.00;98580.06;4862749;29;19977;-76
2020/12/10 00:40:42;;;;;;;;;;;;;;;3.50;100.00;98578.13;4861680;29;19928;-76
2020/12/10 00:43:08;;;;;;;;;;;;;;;3.32;100.00;98577.25;4845989;29;20004;-76
2020/12/10 00:45:35;;;;;;;;;;;;;;;3.26;100.00;98579.59;4861789;29;19928;-76
2020/12/10 00:48:01;;;;;;;;;;;;;;;3.33;100.00;98584.38;4846001;29;19937;-75
2020/12/10 00:50:29;;;;;;;;;;;;;;;3.33;100.00;98589.91;4846226;29;20430;-76
2020/12/10 00:52:56;;;;;;;;;;;;;;;3.46;100.00;98596.66;4862612;29;20040;-76
2020/12/10 00:55:22;;;;;;;;;;;;;;;3.45;100.00;98592.34;4861305;29;20277;-76
2020/12/10 00:57:49;;;;;;;;;;;;;;;3.56;100.00;98593.16;4860915;29;20407;-76
2020/12/10 01:00:18;;;;;;;;;;;;;;;3.46;100.00;98591.13;4845866;29;19935;-76
2020/12/10 01:02:45;;;;;;;;;;;;;;;3.61;100.00;98592.78;4845764;29;19972;-76
2020/12/10 01:05:11;;;;;;;;;;;;;;;3.64;100.00;98594.78;4845908;29;20296;-75
2020/12/10 01:07:38;;;;;;;;;;;;;;;3.60;100.00;98591.22;4862344;29;19928;-76
2020/12/10 01:10:05;;;;;;;;;;;;;;;3.66;100.00;98597.94;4845968;29;19931;-76
2020/12/10 01:12:32;;;;;;;;;;;;;;;3.59;100.00;98597.91;4861914;29;20397;-76
2020/12/10 01:14:59;;;;;;;;;;;;;;;3.62;100.00;98588.84;4861977;29;20359;-76
2020/12/10 01:17:26;;;;;;;;;;;;;;;3.70;100.00;98596.78;4862053;29;20031;-75
2020/12/10 01:19:53;;;;;;;;;;;;;;;3.70;100.00;98593.22;4861921;29;19928;-76
2020/12/10 01:22:19;;;;;;;;;;;;;;;3.58;100.00;98591.59;4845386;29;19935;-76
2020/12/10 01:24:46;;;;;;;;;;;;;;;3.79;100.00;98604.69;4860818;29;19928;-76
2020/12/10 01:27:13;;;;;;;;;;;;;;;3.77;100.00;98593.25;4860651;29;20022;-76
2020/12/10 01:29:41;;;;;;;;;;;;;;;3.77;100.00;98590.50;4861932;29;19932;-76
2020/12/10 01:32:08;;;;;;;;;;;;;;;3.80;100.00;98597.19;4861973;29;19935;-76
2020/12/10 01:34:34;;;;;;;;;;;;;;;3.92;100.00;98605.94;4845292;29;19928;-76
2020/12/10 01:37:03;;;;;;;;;;;;;;;3.99;100.00;98605.94;4845128;29;19932;-76
2020/12/10 01:39:29;;;;;;;;;;;;;;;3.92;100.00;98605.13;4861794;29;19935;-76
2020/12/10 01:41:56;;;;;;;;;;;;;;;3.86;100.00;98606.69;4861544;29;19983;-76
2020/12/10 01:44:22;;;;;;;;;;;;;;;3.88;100.00;98604.34;4845443;29;19935;-76
2020/12/10 01:46:49;;;;;;;;;;;;;;;3.87;100.00;98605.50;4861712;29;19928;-76
2020/12/10 01:49:15;;;;;;;;;;;;;;;3.90;100.00;98604.72;4861683;29;19928;-76
2020/12/10 01:51:42;;;;;;;;;;;;;;;3.88;100.00;98601.56;4861438;29;20285;-76
2020/12/10 01:54:08;;;;;;;;;;;;;;;3.96;100.00;98608.69;4860519;29;19936;-76
2020/12/10 01:56:35;;;;;;;;;;;;;;;4.00;100.00;98610.28;4861154;29;19928;-76
2020/12/10 01:59:03;;;;;;;;;;;;;;;4.08;100.00;98609.13;4861602;29;19928;-76
2020/12/10 02:01:30;;;;;;;;;;;;;;;3.90;100.00;98597.22;4845105;29;19935;-76
2020/12/10 02:03:57;;;;;;;;;;;;;;;3.85;100.00;98600.38;4861480;29;19932;-76
2020/12/10 02:06:24;;;;;;;;;;;;;;;3.88;100.00;98588.53;4861559;29;19935;-76
2020/12/10 02:08:51;;;;;;;;;;;;;;;3.84;100.00;98593.25;4845236;29;20284;-76
2020/12/10 02:11:17;;;;;;;;;;;;;;;3.92;100.00;98589.34;4861229;29;19928;-76
2020/12/10 02:13:44;;;;;;;;;;;;;;;3.71;100.00;98583.75;4861393;29;19935;-76
2020/12/10 02:16:11;;;;;;;;;;;;;;;3.76;100.00;98575.06;4861448;29;19980;-76
2020/12/10 02:18:38;;;;;;;;;;;;;;;3.71;100.00;98583.75;4861346;29;19976;-76
2020/12/10 02:21:04;;;;;;;;;;;;;;;3.60;100.00;98588.44;4814831;29;19951;-76
2020/12/10 02:23:31;;;;;;;;;;;;;;;3.70;100.00;98577.44;4861413;29;19940;-76
2020/12/10 02:25:57;;;;;;;;;;;;;;;3.66;100.00;98576.63;4861267;29;19977;-75
2020/12/10 02:28:24;;;;;;;;;;;;;;;3.59;100.00;98587.66;4860233;29;20019;-76
2020/12/10 02:30:51;;;;;;;;;;;;;;;3.71;100.00;98590.06;4861360;29;20046;-76
2020/12/10 02:33:18;;;;;;;;;;;;;;;3.57;100.00;98590.00;4860135;29;19936;-76
2020/12/10 02:35:45;;;;;;;;;;;;;;;3.61;100.00;98590.03;4861317;29;19928;-76
2020/12/10 02:38:12;;;;;;;;;;;;;;;3.70;100.00;98591.25;4861409;29;19939;-76
2020/12/10 02:40:40;;;;;;;;;;;;;;;3.69;100.00;98608.22;4844489;29;19950;-76
2020/12/10 02:43:07;;;;;;;;;;;;;;;3.81;100.00;98610.63;4861179;29;19928;-76
2020/12/10 02:45:34;;;;;;;;;;;;;;;3.83;100.00;98608.28;4861307;29;19984;-76
2020/12/10 02:48:01;;;;;;;;;;;;;;;3.95;100.00;98610.69;4861176;29;19938;-76
2020/12/10 02:50:27;;;;;;;;;;;;;;;3.86;100.00;98618.56;4861340;29;20026;-76
2020/12/10 02:52:54;;;;;;;;;;;;;;;3.97;100.00;98613.06;4844823;29;19953;-76
2020/12/10 02:55:20;;;;;;;;;;;;;;;3.88;100.00;98605.13;4860884;29;19935;-76
2020/12/10 02:57:47;;;;;;;;;;;;;;;3.84;100.00;98596.03;4861047;29;19929;-76
2020/12/10 03:00:14;;;;;;;;;;;;;;;3.77;100.00;98596.03;4844805;29;19935;-76
2020/12/10 03:02:41;;;;;;;;;;;;;;;3.86;100.00;98603.94;4861021;29;19965;-76
2020/12/10 03:05:07;;;;;;;;;;;;;;;3.90;100.00;98602.75;4861257;29;19928;-75
2020/12/10 03:07:34;;;;;;;;;;;;;;;4.00;100.00;98604.75;4845045;29;19928;-75
2020/12/10 03:10:01;;;;;;;;;;;;;;;3.84;100.00;98598.00;4864168;29;20407;-76
2020/12/10 03:12:28;;;;;;;;;;;;;;;3.87;100.00;98609.06;4864513;29;19935;-76
2020/12/10 03:14:54;;;;;;;;;;;;;;;3.85;100.00;98594.06;4864453;29;19934;-76
2020/12/10 03:17:20;;;;;;;;;;;;;;;3.96;100.00;98606.72;4847782;29;19939;-76
2020/12/10 03:19:47;;;;;;;;;;;;;;;3.97;100.00;98602.78;4864446;29;19986;-76
2020/12/10 03:22:14;;;;;;;;;;;;;;;4.07;100.00;98596.50;4864237;29;19928;-76
2020/12/10 03:24:41;;;;;;;;;;;;;;;3.94;100.00;98592.50;4847617;29;19932;-76
2020/12/10 03:27:08;;;;;;;;;;;;;;;4.01;100.00;98598.06;4863036;29;19935;-76
2020/12/10 03:29:35;;;;;;;;;;;;;;;4.02;100.00;98594.09;4864180;29;19935;-76
2020/12/10 03:32:02;;;;;;;;;;;;;;;3.96;100.00;98597.63;4863915;29;19928;-76
2020/12/10 03:34:29;;;;;;;;;;;;;;;3.88;100.00;98587.75;4864057;29;19936;-76
2020/12/10 03:36:57;;;;;;;;;;;;;;;3.98;100.00;98585.03;4863926;29;19928;-76
2020/12/10 03:39:25;;;;;;;;;;;;;;;4.02;100.00;98587.78;4847482;29;19928;-76
2020/12/10 03:41:52;;;;;;;;;;;;;;;4.17;100.00;98583.84;4847711;29;20004;-76
2020/12/10 03:44:19;;;;;;;;;;;;;;;4.15;100.00;98587.00;4863823;29;19928;-76
2020/12/10 03:46:46;;;;;;;;;;;;;;;4.24;100.00;98579.13;4862494;29;20551;-76
2020/12/10 03:49:12;;;;;;;;;;;;;;;4.28;100.00;98571.63;4847158;29;19961;-76
2020/12/10 03:51:39;;;;;;;;;;;;;;;4.38;100.00;98581.91;4863536;29;19932;-76
2020/12/10 03:54:06;;;;;;;;;;;;;;;4.08;100.00;98564.88;4847216;29;19929;-76
2020/12/10 03:56:32;;;;;;;;;;;;;;;3.95;100.00;98562.88;4863588;29;19929;-76
2020/12/10 03:59:00;;;;;;;;;;;;;;;3.86;100.00;98552.22;4846803;29;19928;-76
2020/12/10 04:01:27;;;;;;;;;;;;;;;3.80;100.00;98545.50;4847043;29;20476;-76
2020/12/10 04:03:54;;;;;;;;;;;;;;;3.78;100.00;98549.81;4863479;29;19934;-76
2020/12/10 04:06:20;;;;;;;;;;;;;;;3.82;100.00;98545.88;4846827;29;20277;-76
2020/12/10 04:08:47;;;;;;;;;;;;;;;3.90;100.00;98547.47;4863317;29;19928;-76
2020/12/10 04:11:13;;;;;;;;;;;;;;;3.94;100.00;98548.28;4846606;29;19928;-76
2020/12/10 04:13:40;;;;;;;;;;;;;;;3.99;100.00;98560.91;4846783;29;20030;-76
2020/12/10 04:16:06;;;;;;;;;;;;;;;3.95;100.00;98560.94;4846593;29;19928;-76
2020/12/10 04:18:36;;;;;;;;;;;;;;;3.84;100.00;98571.16;4863102;29;19928;-76
2020/12/10 04:21:03;;;;;;;;;;;;;;;3.97;100.00;98574.34;4862708;29;19936;-76
2020/12/10 04:23:29;;;;;;;;;;;;;;;4.12;100.00;98576.72;4862527;29;19928;-75
2020/12/10 04:25:55;;;;;;;;;;;;;;;4.21;100.00;98570.84;4862556;29;19932;-76
2020/12/10 04:28:22;;;;;;;;;;;;;;;3.93;100.00;98571.56;4846406;29;19928;-76
2020/12/10 04:30:49;;;;;;;;;;;;;;;4.03;100.00;98579.09;4861250;29;19928;-76
2020/12/10 04:33:15;;;;;;;;;;;;;;;4.22;100.00;98586.25;4845998;29;20011;-76
2020/12/10 04:35:42;;;;;;;;;;;;;;;4.27;100.00;98597.69;4862443;29;19928;-76
2020/12/10 04:38:09;;;;;;;;;;;;;;;4.19;100.00;98604.41;4862910;29;19928;-76
2020/12/10 04:40:36;;;;;;;;;;;;;;;4.25;100.00;98608.38;4846318;29;20023;-76
2020/12/10 04:43:04;;;;;;;;;;;;;;;4.27;100.00;98599.69;4862698;29;19928;-76
2020/12/10 04:45:31;;;;;;;;;;;;;;;4.22;100.00;98602.84;4862626;29;20200;-76
2020/12/10 04:48:04;;;;;;;;;;;;;;;4.21;100.00;98607.56;4847148;29;19928;-76
2020/12/10 04:50:34;;;;;;;;;;;;;;;4.20;100.00;98611.53;4846073;29;19928;-76
2020/12/10 04:53:02;;;;;;;;;;;;;;;4.14;100.00;98609.53;4862591;29;20000;-76
2020/12/10 04:55:28;;;;;;;;;;;;;;;4.18;100.00;98596.50;4862600;29;19928;-75
2020/12/10 04:57:57;;;;;;;;;;;;;;;4.30;100.00;98607.97;4862247;29;19928;-76
2020/12/10 05:00:25;;;;;;;;;;;;;;;4.19;100.00;98601.66;4846044;29;20490;-75
2020/12/10 05:02:52;;;;;;;;;;;;;;;4.28;100.00;98596.53;4830777;29;19928;-75
2020/12/10 05:05:30;;;;;;;;;;;;;;;4.38;100.00;98600.47;4845550;29;19928;-75
2020/12/10 05:07:57;;;;;;;;;;;;;;;4.19;100.00;98598.88;4845830;29;20380;-75
2020/12/10 05:10:24;;;;;;;;;;;;;;;4.10;100.00;98592.94;4845791;29;19928;-75
2020/12/10 05:12:50;;;;;;;;;;;;;;;4.16;100.00;98588.59;4861948;29;19928;-75
2020/12/10 05:15:30;;;;;;;;;;;;;;;4.11;100.00;98585.41;4861526;29;19935;-76
2020/12/10 05:18:09;;;;;;;;;;;;;;;4.13;100.00;98586.63;4861537;29;20535;-77
2020/12/10 05:20:44;;;;;;;;;;;;;;;4.28;100.00;98591.00;4845312;29;19929;-77
2020/12/10 05:23:17;;;;;;;;;;;;;;;4.22;100.00;98600.88;4845697;29;19931;-77
2020/12/10 05:25:44;;;;;;;;;;;;;;;4.35;100.00;98602.06;4861937;29;20308;-76
2020/12/10 05:28:10;;;;;;;;;;;;;;;4.32;100.00;98602.84;4860732;29;20380;-77
2020/12/10 05:30:37;;;;;;;;;;;;;;;4.20;100.00;98596.88;4844997;29;19929;-77
2020/12/10 05:33:11;;;;;;;;;;;;;;;4.15;100.00;98598.06;4861589;29;20031;-76
2020/12/10 05:35:37;;;;;;;;;;;;;;;4.18;100.00;98591.75;4861744;29;19935;-77
2020/12/10 05:38:08;;;;;;;;;;;;;;;4.11;100.00;98602.81;4861851;29;19928;-77
2020/12/10 05:40:35;;;;;;;;;;;;;;;4.25;100.00;98608.38;4861804;29;19928;-77
2020/12/10 05:43:02;;;;;;;;;;;;;;;4.30;100.00;98602.44;4845145;29;19955;-77
2020/12/10 05:45:28;;;;;;;;;;;;;;;4.22;100.00;98598.09;4845146;29;19936;-77
2020/12/10 05:47:57;;;;;;;;;;;;;;;4.30;100.00;98607.97;4845015;29;20034;-77
2020/12/10 05:50:27;;;;;;;;;;;;;;;4.28;100.00;98610.34;4830150;29;19932;-76
2020/12/10 05:53:06;;;;;;;;;;;;;;;4.26;100.00;98609.94;4845185;29;19928;-77
2020/12/10 05:55:34;;;;;;;;;;;;;;;4.19;100.00;98601.66;4845017;29;20285;-77
2020/12/10 05:58:01;;;;;;;;;;;;;;;4.20;100.00;98605.19;4860314;29;20269;-77
2020/12/10 06:00:28;;;;;;;;;;;;;;;4.34;100.00;98616.28;4861496;29;19928;-77
2020/12/10 06:02:55;;;;;;;;;;;;;;;4.31;100.00;98617.06;4845004;29;19932;-77
2020/12/10 06:05:23;;;;;;;;;;;;;;;4.38;100.00;98628.94;4844859;29;19938;-77
2020/12/10 06:08:02;;;;;;;;;;;;;;;4.36;100.00;98625.75;4861452;29;19935;-77
2020/12/10 06:10:29;;;;;;;;;;;;;;;4.38;100.00;98634.47;4829764;29;20460;-77
2020/12/10 06:12:57;;;;;;;;;;;;;;;4.31;100.00;98642.75;4844826;29;19978;-76
2020/12/10 06:15:27;;;;;;;;;;;;;;;4.38;100.00;98644.72;4844780;29;19935;-77
2020/12/10 06:18:01;;;;;;;;;;;;;;;4.33;100.00;98654.19;4844810;29;19928;-77
2020/12/10 06:20:32;;;;;;;;;;;;;;;4.57;100.00;98659.00;4860391;29;19928;-77
2020/12/10 06:23:17;;;;;;;;;;;;;;;4.62;100.00;98655.84;4844781;29;19942;-77
2020/12/10 06:25:43;;;;;;;;;;;;;;;4.51;100.00;98655.06;4861052;29;19928;-77
2020/12/10 06:28:17;;;;;;;;;;;;;;;4.56;100.00;98651.88;4861283;29;19985;-77
2020/12/10 06:31:02;;;;;;;;;;;;;;;4.54;100.00;98654.25;4860075;29;20028;-77
2020/12/10 06:33:39;;;;;;;;;;;;;;;4.37;100.00;98655.03;4861265;29;19928;-77
2020/12/10 06:36:18;;;;;;;;;;;;;;;4.45;100.00;98651.09;4844814;29;19935;-77
2020/12/10 06:38:46;;;;;;;;;;;;;;;4.30;100.00;98652.22;4861228;29;19928;-77
2020/12/10 06:41:12;;;;;;;;;;;;;;;4.37;100.00;98646.72;4861072;29;19928;-77
2020/12/10 06:43:39;;;;;;;;;;;;;;;4.34;100.00;98658.56;4863071;29;20348;-77
2020/12/10 06:46:06;;;;;;;;;;;;;;;4.38;100.00;98653.03;4863366;29;19928;-77
2020/12/10 06:48:39;;;;;;;;;;;;;;;4.45;100.00;98664.13;4864637;29;20014;-77
2020/12/10 06:51:13;;;;;;;;;;;;;;;4.60;100.00;98663.75;4864733;29;20381;-77
2020/12/10 06:53:40;;;;;;;;;;;;;;;4.62;100.00;98677.97;4848226;29;19935;-77
2020/12/10 06:56:12;;;;;;;;;;;;;;;4.64;100.00;98675.63;4864512;29;19932;-77
2020/12/10 06:58:42;;;;;;;;;;;;;;;4.68;100.00;98681.94;4864469;29;20399;-77
2020/12/10 07:01:21;;;;;;;;;;;;;;;4.70;100.00;98682.34;4847969;29;20100;-77
2020/12/10 07:03:49;;;;;;;;;;;;;;;4.72;100.00;98682.75;4863413;29;20328;-77
2020/12/10 07:06:20;;;;;;;;;;;;;;;4.74;100.00;98674.06;4847893;29;19932;-77
2020/12/10 07:08:58;;;;;;;;;;;;;;;4.70;100.00;98673.22;4864351;29;19935;-77
2020/12/10 07:11:32;;;;;;;;;;;;;;;4.69;100.00;98672.47;4847763;29;19935;-77
2020/12/10 07:13:59;;;;;;;;;;;;;;;4.77;100.00;98679.56;4864419;29;19929;-77
2020/12/10 07:16:32;;;;;;;;;;;;;;;4.69;100.00;98683.53;4864039;29;19928;-77
2020/12/10 07:18:59;;;;;;;;;;;;;;;4.73;100.00;98678.78;4847826;29;19928;-77
2020/12/10 07:21:25;;;;;;;;;;;;;;;4.75;100.00;98673.66;4864146;29;19976;-76
2020/12/10 07:23:53;;;;;;;;;;;;;;;4.73;100.00;98678.78;4863925;29;20254;-76
2020/12/10 07:26:19;;;;;;;;;;;;;;;4.73;100.00;98681.56;4864017;29;19951;-76
2020/12/10 07:28:47;;;;;;;;;;;;;;;4.73;100.00;98678.78;4864137;29;20323;-77
2020/12/10 07:31:14;;;;;;;;;;;;;;;4.65;100.00;98676.41;4847306;29;20400;-76
2020/12/10 07:33:42;;;;;;;;;;;;;;;4.61;100.00;98679.16;4847607;29;20058;-75
2020/12/10 07:36:08;;;;;;;;;;;;;;;4.71;100.00;98678.38;4863699;29;19967;-74
2020/12/10 07:38:35;;;;;;;;;;;;;;;4.85;100.00;98685.91;4862362;29;20282;-75
2020/12/10 07:41:02;;;;;;;;;;;;;;;4.89;100.00;98676.41;4862454;29;20264;-76
2020/12/10 07:43:28;;;;;;;;;;;;;;;4.81;100.00;98674.03;4831536;29;19984;-75
2020/12/10 07:45:55;;;;;;;;;;;;;;;4.75;100.00;98665.34;4847418;29;19928;-76
2020/12/10 07:48:22;;;;;;;;;;;;;;;4.64;100.00;98660.97;4863561;29;20380;-76
2020/12/10 07:50:49;;;;;;;;;;;;;;;4.62;100.00;98666.91;4863586;29;19928;-75
2020/12/10 07:53:20;;;;;;;;;;;;;;;4.61;100.00;98670.06;4846212;29;19928;-76
2020/12/10 07:55:53;;;;;;;;;;;;;;;4.64;100.00;98669.28;4861737;29;20000;-75
2020/12/10 07:58:33;;;;;;;;;;;;;;;4.67;100.00;98680.38;4845766;29;20004;-75
2020/12/10 08:01:06;;;;;;;;;;;;;;;4.70;100.00;98681.53;4847066;29;19928;-75
2020/12/10 08:03:51;;;;;;;;;;;;;;;4.63;100.00;98676.81;4862024;29;19928;-76
2020/12/10 08:06:17;;;;;;;;;;;;;;;4.52;100.00;98686.25;4862267;29;20345;-76
2020/12/10 08:08:47;;;;;;;;;;;;;;;4.60;100.00;98696.16;4861200;29;20368;-76
2020/12/10 08:11:14;;;;;;;;;;;;;;;4.69;100.00;98694.59;4862197;29;19984;-76
2020/12/10 08:13:59;;;;;;;;;;;;;;;4.70;100.00;98704.47;4845708;29;20345;-76
2020/12/10 08:16:37;;;;;;;;;;;;;;;4.66;100.00;98711.19;4860822;29;20000;-76
2020/12/10 08:19:31;;;;;;;;;;;;;;;4.52;100.00;98698.13;4846768;29;19928;-76
2020/12/10 08:21:59;;;;;;;;;;;;;;;4.68;100.00;98706.84;4844586;29;20428;-76
2020/12/10 08:24:35;;;;;;;;;;;;;;;4.71;100.00;98717.13;4863134;29;19928;-76
2020/12/10 08:27:02;;;;;;;;;;;;;;;4.72;100.00;98715.16;4846479;29;19949;-76
2020/12/10 08:29:28;;;;;;;;;;;;;;;4.65;100.00;98704.84;4846720;29;20008;-76
2020/12/10 08:32:04;;;;;;;;;;;;;;;4.44;100.00;98699.28;4861419;29;19928;-76
2020/12/10 08:34:31;;;;;;;;;;;;;;;4.50;100.00;98697.72;4862879;29;19929;-75
2020/12/10 08:37:02;;;;;;;;;;;;;;;4.54;100.00;98698.53;4862741;29;19928;-75
2020/12/10 08:39:39;;;;;;;;;;;;;;;4.67;100.00;98708.03;4846651;29;19932;-75
2020/12/10 08:42:06;;;;;;;;;;;;;;;4.71;100.00;98714.34;4846084;29;19935;-74
2020/12/10 08:44:46;;;;;;;;;;;;;;;4.75;100.00;98698.56;4846418;29;20019;-75
2020/12/10 08:47:25;;;;;;;;;;;;;;;4.81;100.00;98696.19;4846305;29;19935;-75
2020/12/10 08:50:23;;;;;;;;;;;;;;;4.82;100.00;98708.84;4861663;29;19966;-75
2020/12/10 08:52:59;;;;;;;;;;;;;;;4.69;100.00;98705.69;4861338;29;19928;-75
2020/12/10 08:55:26;;;;;;;;;;;;;;;4.75;100.00;98701.34;4862547;29;20377;-76
2020/12/10 08:57:53;;;;;;;;;;;;;;;4.68;100.00;98704.06;4861191;29;19928;-76
2020/12/10 09:00:19;;;;;;;;;;;;;;;4.64;100.00;98703.28;4845921;29;20281;-75
2020/12/10 09:02:46;;;;;;;;;;;;;;;4.60;100.00;98705.25;4861446;29;19928;-76
2020/12/10 09:05:12;;;;;;;;;;;;;;;4.63;100.00;98701.72;4861742;29;19960;-75
2020/12/10 09:07:40;;;;;;;;;;;;;;;4.60;100.00;98702.50;4846051;29;19964;-76
2020/12/10 09:10:07;;;;;;;;;;;;;;;4.64;100.00;98703.28;4862229;29;19935;-75
2020/12/10 09:12:34;;;;;;;;;;;;;;;4.81;100.00;98702.53;4861768;29;19961;-76
2020/12/10 09:15:00;;;;;;;;;;;;;;;4.89;100.00;98704.09;4862168;29;20424;-76
2020/12/10 09:17:27;;;;;;;;;;;;;;;4.85;100.00;98691.44;4862322;29;19959;-76
2020/12/10 09:19:53;;;;;;;;;;;;;;;4.77;100.00;98690.63;4862214;29;20276;-76
2020/12/10 09:22:20;;;;;;;;;;;;;;;4.82;100.00;98698.56;4862050;29;19973;-76
2020/12/10 09:24:46;;;;;;;;;;;;;;;4.79;100.00;98693.81;4845435;29;19929;-76
2020/12/10 09:27:18;;;;;;;;;;;;;;;4.85;100.00;98696.97;4861945;29;20365;-75
2020/12/10 09:29:44;;;;;;;;;;;;;;;4.98;100.00;98706.50;4861975;29;20044;-76
2020/12/10 09:32:11;;;;;;;;;;;;;;;4.88;100.00;98691.44;4845350;29;20456;-76
2020/12/10 09:34:37;;;;;;;;;;;;;;;4.76;100.00;98694.59;4861780;29;19928;-75
2020/12/10 09:37:04;;;;;;;;;;;;;;;4.77;100.00;98695.41;4861825;29;20001;-77
2020/12/10 09:39:33;;;;;;;;;;;;;;;4.65;100.00;98688.25;4861753;29;19984;-76
2020/12/10 09:42:00;;;;;;;;;;;;;;;4.60;100.00;98682.31;4861799;29;19960;-75
2020/12/10 09:44:27;;;;;;;;;;;;;;;4.64;100.00;98685.88;4845468;29;19977;-75
2020/12/10 09:46:53;;;;;;;;;;;;;;;4.66;100.00;98689.84;4845449;29;20437;-76
2020/12/10 09:51:54;;;;;;;;;;;;;;;4.62;100.00;98694.56;4860717;29;20399;-76
2020/12/10 09:59:30;;;;;;;;;;;;;;;4.93;100.00;98710.44;4860480;29;19935;-76
2020/12/10 10:01:57;;;;;;;;;;;;;;;4.95;100.00;98710.81;4861060;29;20267;-76
2020/12/10 10:04:24;;;;;;;;;;;;;;;5.06;100.00;98714.38;4860295;29;19981;-75
2020/12/10 10:06:51;;;;;;;;;;;;;;;5.11;100.00;98716.78;4840786;29;19932;-74
2020/12/10 10:09:17;;;;;;;;;;;;;;;5.17;100.00;98719.94;4855537;29;19927;-74
2020/12/10 10:11:44;;;;;;;;;;;;;;;5.15;100.00;98725.09;4873486;29;20027;-74
2020/12/10 10:14:11;;;;;;;;;;;;;;;5.00;100.00;98727.06;4874663;29;19928;-73
2020/12/10 10:16:37;;;;;;;;;;;;;;;5.00;100.00;98727.06;4876586;29;19935;-74
2020/12/10 10:19:04;;;;;;;;;;;;;;;5.01;100.00;98716.78;4865967;29;19935;-73
2020/12/10 10:21:30;;;;;;;;;;;;;;;5.14;100.00;98727.06;4855988;29;19985;-74
2020/12/10 10:23:57;;;;;;;;;;;;;;;5.17;100.00;98725.47;4861548;29;19932;-74
2020/12/10 10:26:24;;;;;;;;;;;;;;;5.16;100.00;98721.94;4847005;29;19932;-74
2020/12/10 10:28:52;;;;;;;;;;;;;;;5.20;100.00;98724.69;4862292;29;19984;-74
2020/12/10 10:31:23;;;;;;;;;;;;;;;4.93;100.00;98704.09;4847112;29;20354;-73
2020/12/10 10:34:06;;;;;;;;;;;;;;;4.90;100.00;98689.09;4863004;29;20345;-74
2020/12/10 10:36:43;;;;;;;;;;;;;;;5.04;100.00;98697.38;4863205;29;19935;-74
2020/12/10 10:39:27;;;;;;;;;;;;;;;5.13;100.00;98694.22;4862165;29;19928;-76
2020/12/10 10:41:59;;;;;;;;;;;;;;;5.12;100.00;98690.66;4862301;29;19934;-76
2020/12/10 10:44:31;;;;;;;;;;;;;;;5.05;100.00;98687.09;4847261;29;20018;-76
2020/12/10 10:47:07;;;;;;;;;;;;;;;5.13;100.00;98685.91;4861533;29;20358;-76
2020/12/10 10:49:47;;;;;;;;;;;;;;;5.15;100.00;98676.00;4847954;29;20021;-76
2020/12/10 10:52:23;;;;;;;;;;;;;;;5.06;100.00;98669.28;4863377;29;20325;-76
2020/12/10 10:54:50;;;;;;;;;;;;;;;5.15;100.00;98675.25;4863024;29;19939;-76
2020/12/10 10:57:17;;;;;;;;;;;;;;;5.15;100.00;98661.41;4862767;29;19936;-77
2020/12/10 10:59:43;;;;;;;;;;;;;;;5.29;100.00;98659.38;4863203;29;19984;-76
2020/12/10 11:02:10;;;;;;;;;;;;;;;5.35;100.00;98657.00;4846328;29;19975;-76
2020/12/10 11:04:36;;;;;;;;;;;;;;;5.39;100.00;98655.78;4863016;29;19928;-76
2020/12/10 11:07:03;;;;;;;;;;;;;;;5.29;100.00;98645.53;4846930;29;19938;-76
2020/12/10 11:09:30;;;;;;;;;;;;;;;5.16;100.00;98630.53;4862822;29;20023;-77
2020/12/10 11:11:56;;;;;;;;;;;;;;;5.19;100.00;98646.34;4831069;29;19928;-77
2020/12/10 11:14:23;;;;;;;;;;;;;;;5.30;100.00;98647.09;4863404;29;19932;-74
2020/12/10 11:16:56;;;;;;;;;;;;;;;5.33;100.00;98651.09;4862886;29;19928;-75
2020/12/10 11:19:23;;;;;;;;;;;;;;;5.45;100.00;98654.19;4862945;29;20008;-73
2020/12/10 11:21:49;;;;;;;;;;;;;;;5.48;100.00;98652.63;4846589;29;19985;-73
2020/12/10 11:24:15;;;;;;;;;;;;;;;5.49;100.00;98655.00;4862991;29;19935;-74
2020/12/10 11:26:42;;;;;;;;;;;;;;;5.52;100.00;98659.75;4859303;29;19928;-74
2020/12/10 12:18:16;;;;;;;;;;;;;;;5.67;100.00;98626.41;4855583;29;19992;-72
2020/12/10 12:20:43;;;;;;;;;;;;;;;5.65;100.00;98617.75;4835090;29;19939;-73
2020/12/10 12:23:10;;;;;;;;;;;;;;;5.80;100.00;98600.63;4838766;29;19963;-73
2020/12/10 12:25:37;;;;;;;;;;;;;;;5.84;100.00;98592.34;4823075;29;19935;-73
2020/12/10 12:28:04;;;;;;;;;;;;;;;5.79;100.00;98584.41;4839197;29;19937;-72
2020/12/10 12:30:33;;;;;;;;;;;;;;;5.82;100.00;98583.63;4822336;29;19984;-73
2020/12/10 12:33:00;;;;;;;;;;;;;;;5.55;100.00;98567.50;4839257;29;19974;-73
2020/12/10 12:35:27;;;;;;;;;;;;;;;5.57;100.00;98570.63;4839498;29;20320;-72
2020/12/10 12:37:57;;;;;;;;;;;;;;;5.38;100.00;98554.50;4822371;29;20286;-74
2020/12/10 12:40:23;;;;;;;;;;;;;;;5.33;100.00;98545.81;4838295;29;19936;-73
2020/12/10 12:42:50;;;;;;;;;;;;;;;5.36;100.00;98550.56;4822930;29;20325;-73
2020/12/10 12:45:17;;;;;;;;;;;;;;;5.32;100.00;98545.00;4839205;29;19929;-73
2020/12/10 12:47:43;;;;;;;;;;;;;;;5.30;100.00;98552.91;4839422;29;20041;-72
2020/12/10 12:50:10;;;;;;;;;;;;;;;5.32;100.00;98545.00;4839028;29;20406;-73
2020/12/10 12:52:37;;;;;;;;;;;;;;;5.47;100.00;98565.94;4836720;29;19997;-72
2020/12/10 12:55:04;;;;;;;;;;;;;;;5.56;100.00;98560.75;4838393;29;19935;-73
2020/12/10 12:57:31;;;;;;;;;;;;;;;5.62;100.00;98568.66;4806947;29;19929;-72
2020/12/10 12:59:57;;;;;;;;;;;;;;;5.63;100.00;98550.81;4804860;29;20343;-74
2020/12/10 13:02:24;;;;;;;;;;;;;;;5.67;100.00;98565.44;4832974;29;19932;-73
2020/12/10 13:04:51;;;;;;;;;;;;;;;5.57;100.00;98551.22;4840580;29;19988;-74
2020/12/10 13:07:18;;;;;;;;;;;;;;;5.49;100.00;98555.25;4824748;29;20348;-73
2020/12/10 13:09:45;;;;;;;;;;;;;;;5.53;100.00;98544.94;4825301;29;19932;-74
2020/12/10 13:12:14;;;;;;;;;;;;;;;5.58;100.00;98536.19;4840464;29;20014;-74
2020/12/10 13:14:41;;;;;;;;;;;;;;;5.63;100.00;98543.31;4843735;29;20082;-73
2020/12/10 13:17:08;;;;;;;;;;;;;;;5.55;100.00;98531.47;4841675;29;20129;-73
2020/12/10 13:19:34;;;;;;;;;;;;;;;5.64;100.00;98533.78;4855204;29;19938;-74
2020/12/10 13:22:01;;;;;;;;;;;;;;;5.68;100.00;98525.47;4868647;29;20453;-75
2020/12/10 13:24:27;;;;;;;;;;;;;;;5.65;100.00;98529.03;4855491;29;20305;-74
2020/12/10 13:26:56;;;;;;;;;;;;;;;5.65;100.00;98521.50;4858064;29;20023;-74
2020/12/10 13:29:23;;;;;;;;;;;;;;;5.66;100.00;98508.44;4860360;29;19938;-74
2020/12/10 13:31:49;;;;;;;;;;;;;;;5.60;100.00;98511.63;4860545;29;19972;-74
2020/12/10 13:34:16;;;;;;;;;;;;;;;5.65;100.00;98523.50;4860975;29;20447;-75
2020/12/10 13:36:42;;;;;;;;;;;;;;;5.45;100.00;98503.81;4857143;29;19935;-74
2020/12/10 13:39:10;;;;;;;;;;;;;;;5.59;100.00;98492.63;4860905;29;19929;-74
2020/12/10 13:41:37;;;;;;;;;;;;;;;5.54;100.00;98491.06;4860803;29;19951;-75
2020/12/10 13:44:04;;;;;;;;;;;;;;;5.63;100.00;98483.09;4860791;29;19928;-75
2020/12/10 13:46:30;;;;;;;;;;;;;;;5.65;100.00;98473.63;4859961;29;19928;-74
2020/12/10 13:48:59;;;;;;;;;;;;;;;5.67;100.00;98487.84;4858802;29;19961;-75
2020/12/10 13:51:27;;;;;;;;;;;;;;;5.57;100.00;98468.09;4854215;29;20403;-75